sensor_id;sensor_type;location;lat;lon;timestamp;P1;durP1;ratioP1;P2;durP2;ratioP2
21630;SDS011;10977;46.802;11.952;2022-08-30T00:00:50;4.53;;;4.07;;
21630;SDS011;10977;46.802;11.952;2022-08-30T00:03:31;6.20;;;3.60;;
21630;SDS011;10977;46.802;11.952;2022-08-30T00:06:01;5.07;;;4.25;;
21630;SDS011;10977;46.802;11.952;2022-08-30T00:08:27;4.78;;;4.22;;
21630;SDS011;10977;46.802;11.952;2022-08-30T00:10:52;5.65;;;4.45;;
21630;SDS011;10977;46.802;11.952;2022-08-30T00:13:19;4.57;;;3.90;;
21630;SDS011;10977;46.802;11.952;2022-08-30T00:15:46;4.85;;;4.35;;
21630;SDS011;10977;46.802;11.952;2022-08-30T00:18:11;5.53;;;3.83;;
21630;SDS011;10977;46.802;11.952;2022-08-30T00:20:37;6.45;;;4.47;;
21630;SDS011;10977;46.802;11.952;2022-08-30T00:23:03;4.97;;;4.43;;
21630;SDS011;10977;46.802;11.952;2022-08-30T00:25:29;6.78;;;4.20;;
21630;SDS011;10977;46.802;11.952;2022-08-30T00:27:55;6.13;;;3.85;;
21630;SDS011;10977;46.802;11.952;2022-08-30T00:30:21;5.78;;;4.20;;
21630;SDS011;10977;46.802;11.952;2022-08-30T00:32:47;4.38;;;3.97;;
21630;SDS011;10977;46.802;11.952;2022-08-30T00:35:13;4.70;;;4.30;;
21630;SDS011;10977;46.802;11.952;2022-08-30T00:37:41;4.20;;;3.80;;
21630;SDS011;10977;46.802;11.952;2022-08-30T00:40:09;5.32;;;4.47;;
21630;SDS011;10977;46.802;11.952;2022-08-30T00:42:36;5.20;;;4.05;;
21630;SDS011;10977;46.802;11.952;2022-08-30T00:45:10;4.97;;;4.03;;
21630;SDS011;10977;46.802;11.952;2022-08-30T00:47:36;4.57;;;3.90;;
21630;SDS011;10977;46.802;11.952;2022-08-30T00:50:02;4.40;;;4.00;;
21630;SDS011;10977;46.802;11.952;2022-08-30T00:52:28;6.63;;;3.97;;
21630;SDS011;10977;46.802;11.952;2022-08-30T00:54:53;7.25;;;3.88;;
21630;SDS011;10977;46.802;11.952;2022-08-30T00:57:19;4.38;;;3.97;;
21630;SDS011;10977;46.802;11.952;2022-08-30T00:59:46;4.95;;;3.72;;
21630;SDS011;10977;46.802;11.952;2022-08-30T01:02:13;4.95;;;4.00;;
21630;SDS011;10977;46.802;11.952;2022-08-30T01:04:42;7.50;;;4.20;;
21630;SDS011;10977;46.802;11.952;2022-08-30T01:07:08;6.40;;;4.15;;
21630;SDS011;10977;46.802;11.952;2022-08-30T01:09:34;4.35;;;3.95;;
21630;SDS011;10977;46.802;11.952;2022-08-30T01:12:00;6.22;;;4.13;;
21630;SDS011;10977;46.802;11.952;2022-08-30T01:14:27;4.57;;;4.18;;
21630;SDS011;10977;46.802;11.952;2022-08-30T01:16:54;6.55;;;4.60;;
21630;SDS011;10977;46.802;11.952;2022-08-30T01:19:29;6.15;;;4.68;;
21630;SDS011;10977;46.802;11.952;2022-08-30T01:22:02;7.47;;;4.38;;
21630;SDS011;10977;46.802;11.952;2022-08-30T01:24:32;4.45;;;4.05;;
21630;SDS011;10977;46.802;11.952;2022-08-30T01:26:58;8.15;;;4.80;;
21630;SDS011;10977;46.802;11.952;2022-08-30T01:29:23;5.60;;;5.00;;
21630;SDS011;10977;46.802;11.952;2022-08-30T01:31:50;6.30;;;4.38;;
21630;SDS011;10977;46.802;11.952;2022-08-30T01:34:15;4.88;;;4.38;;
21630;SDS011;10977;46.802;11.952;2022-08-30T01:36:41;4.88;;;4.28;;
21630;SDS011;10977;46.802;11.952;2022-08-30T01:39:10;5.38;;;4.38;;
21630;SDS011;10977;46.802;11.952;2022-08-30T01:41:37;5.05;;;4.55;;
21630;SDS011;10977;46.802;11.952;2022-08-30T01:44:04;9.60;;;4.03;;
21630;SDS011;10977;46.802;11.952;2022-08-30T01:46:34;5.10;;;4.15;;
21630;SDS011;10977;46.802;11.952;2022-08-30T01:49:03;5.05;;;4.07;;
21630;SDS011;10977;46.802;11.952;2022-08-30T01:51:31;5.53;;;4.35;;
21630;SDS011;10977;46.802;11.952;2022-08-30T01:53:57;4.45;;;4.05;;
21630;SDS011;10977;46.802;11.952;2022-08-30T01:56:24;4.38;;;3.78;;
21630;SDS011;10977;46.802;11.952;2022-08-30T01:58:51;5.35;;;3.92;;
21630;SDS011;10977;46.802;11.952;2022-08-30T02:01:19;4.93;;;4.53;;
21630;SDS011;10977;46.802;11.952;2022-08-30T02:03:47;5.43;;;4.25;;
21630;SDS011;10977;46.802;11.952;2022-08-30T02:06:14;4.65;;;4.18;;
21630;SDS011;10977;46.802;11.952;2022-08-30T02:08:41;4.35;;;3.95;;
21630;SDS011;10977;46.802;11.952;2022-08-30T02:11:07;4.57;;;4.15;;
21630;SDS011;10977;46.802;11.952;2022-08-30T02:13:33;4.90;;;4.15;;
21630;SDS011;10977;46.802;11.952;2022-08-30T02:16:01;5.07;;;3.70;;
21630;SDS011;10977;46.802;11.952;2022-08-30T02:18:28;4.45;;;4.00;;
21630;SDS011;10977;46.802;11.952;2022-08-30T02:20:53;4.40;;;4.00;;
21630;SDS011;10977;46.802;11.952;2022-08-30T02:23:19;4.40;;;3.88;;
21630;SDS011;10977;46.802;11.952;2022-08-30T02:25:45;6.25;;;4.15;;
21630;SDS011;10977;46.802;11.952;2022-08-30T02:28:11;6.63;;;4.13;;
21630;SDS011;10977;46.802;11.952;2022-08-30T02:30:38;5.72;;;4.47;;
21630;SDS011;10977;46.802;11.952;2022-08-30T02:33:04;5.93;;;4.18;;
21630;SDS011;10977;46.802;11.952;2022-08-30T02:35:29;4.95;;;4.38;;
21630;SDS011;10977;46.802;11.952;2022-08-30T02:37:55;6.22;;;4.07;;
21630;SDS011;10977;46.802;11.952;2022-08-30T02:40:20;6.97;;;4.55;;
21630;SDS011;10977;46.802;11.952;2022-08-30T02:42:46;5.63;;;4.30;;
21630;SDS011;10977;46.802;11.952;2022-08-30T02:45:12;5.63;;;4.50;;
21630;SDS011;10977;46.802;11.952;2022-08-30T02:47:39;6.68;;;4.53;;
21630;SDS011;10977;46.802;11.952;2022-08-30T02:50:05;5.53;;;4.45;;
21630;SDS011;10977;46.802;11.952;2022-08-30T02:52:32;6.18;;;4.55;;
21630;SDS011;10977;46.802;11.952;2022-08-30T02:54:57;6.78;;;4.43;;
21630;SDS011;10977;46.802;11.952;2022-08-30T02:57:23;7.90;;;4.45;;
21630;SDS011;10977;46.802;11.952;2022-08-30T02:59:49;6.28;;;4.38;;
21630;SDS011;10977;46.802;11.952;2022-08-30T03:02:14;6.45;;;4.63;;
21630;SDS011;10977;46.802;11.952;2022-08-30T03:04:40;6.93;;;4.93;;
21630;SDS011;10977;46.802;11.952;2022-08-30T03:07:08;6.20;;;4.57;;
21630;SDS011;10977;46.802;11.952;2022-08-30T03:09:34;4.50;;;4.10;;
21630;SDS011;10977;46.802;11.952;2022-08-30T03:12:00;5.97;;;4.32;;
21630;SDS011;10977;46.802;11.952;2022-08-30T03:14:26;8.07;;;5.30;;
21630;SDS011;10977;46.802;11.952;2022-08-30T03:16:52;5.30;;;4.68;;
21630;SDS011;10977;46.802;11.952;2022-08-30T03:19:18;4.93;;;4.43;;
21630;SDS011;10977;46.802;11.952;2022-08-30T03:21:43;5.10;;;4.60;;
21630;SDS011;10977;46.802;11.952;2022-08-30T03:24:09;4.78;;;4.22;;
21630;SDS011;10977;46.802;11.952;2022-08-30T03:26:34;5.18;;;4.35;;
21630;SDS011;10977;46.802;11.952;2022-08-30T03:29:00;5.22;;;4.72;;
21630;SDS011;10977;46.802;11.952;2022-08-30T03:31:26;5.10;;;4.32;;
21630;SDS011;10977;46.802;11.952;2022-08-30T03:33:51;5.72;;;5.13;;
21630;SDS011;10977;46.802;11.952;2022-08-30T03:36:17;8.32;;;4.80;;
21630;SDS011;10977;46.802;11.952;2022-08-30T03:38:43;5.97;;;4.80;;
21630;SDS011;10977;46.802;11.952;2022-08-30T03:41:08;5.72;;;4.30;;
21630;SDS011;10977;46.802;11.952;2022-08-30T03:43:34;4.53;;;4.13;;
21630;SDS011;10977;46.802;11.952;2022-08-30T03:45:59;7.30;;;5.60;;
21630;SDS011;10977;46.802;11.952;2022-08-30T03:48:26;6.35;;;5.00;;
21630;SDS011;10977;46.802;11.952;2022-08-30T03:50:51;6.25;;;4.93;;
21630;SDS011;10977;46.802;11.952;2022-08-30T03:53:17;7.47;;;5.10;;
21630;SDS011;10977;46.802;11.952;2022-08-30T03:55:43;5.47;;;4.68;;
21630;SDS011;10977;46.802;11.952;2022-08-30T03:58:08;5.25;;;4.72;;
21630;SDS011;10977;46.802;11.952;2022-08-30T04:00:34;5.47;;;4.80;;
21630;SDS011;10977;46.802;11.952;2022-08-30T04:02:59;5.35;;;4.65;;
21630;SDS011;10977;46.802;11.952;2022-08-30T04:05:25;6.55;;;5.43;;
21630;SDS011;10977;46.802;11.952;2022-08-30T04:07:51;7.85;;;6.38;;
21630;SDS011;10977;46.802;11.952;2022-08-30T04:10:17;9.27;;;6.53;;
21630;SDS011;10977;46.802;11.952;2022-08-30T04:12:45;10.68;;;7.28;;
21630;SDS011;10977;46.802;11.952;2022-08-30T04:15:11;8.77;;;6.20;;
21630;SDS011;10977;46.802;11.952;2022-08-30T04:17:37;7.70;;;6.13;;
21630;SDS011;10977;46.802;11.952;2022-08-30T04:20:03;5.93;;;5.32;;
21630;SDS011;10977;46.802;11.952;2022-08-30T04:22:30;6.35;;;5.72;;
21630;SDS011;10977;46.802;11.952;2022-08-30T04:24:55;7.10;;;6.32;;
21630;SDS011;10977;46.802;11.952;2022-08-30T04:27:21;7.15;;;5.93;;
21630;SDS011;10977;46.802;11.952;2022-08-30T04:29:46;6.07;;;5.47;;
21630;SDS011;10977;46.802;11.952;2022-08-30T04:32:12;8.23;;;5.75;;
21630;SDS011;10977;46.802;11.952;2022-08-30T04:34:38;6.05;;;5.30;;
21630;SDS011;10977;46.802;11.952;2022-08-30T04:37:03;5.03;;;4.53;;
21630;SDS011;10977;46.802;11.952;2022-08-30T04:39:29;5.97;;;5.07;;
21630;SDS011;10977;46.802;11.952;2022-08-30T04:41:54;6.10;;;4.93;;
21630;SDS011;10977;46.802;11.952;2022-08-30T04:44:21;5.63;;;4.90;;
21630;SDS011;10977;46.802;11.952;2022-08-30T04:46:47;6.32;;;5.63;;
21630;SDS011;10977;46.802;11.952;2022-08-30T04:49:13;7.72;;;5.28;;
21630;SDS011;10977;46.802;11.952;2022-08-30T04:51:39;5.88;;;4.68;;
21630;SDS011;10977;46.802;11.952;2022-08-30T04:54:05;5.13;;;4.63;;
21630;SDS011;10977;46.802;11.952;2022-08-30T04:56:31;6.32;;;5.03;;
21630;SDS011;10977;46.802;11.952;2022-08-30T04:58:57;6.47;;;5.30;;
21630;SDS011;10977;46.802;11.952;2022-08-30T05:01:24;5.43;;;4.90;;
21630;SDS011;10977;46.802;11.952;2022-08-30T05:03:52;5.97;;;5.00;;
21630;SDS011;10977;46.802;11.952;2022-08-30T05:06:19;7.50;;;5.03;;
21630;SDS011;10977;46.802;11.952;2022-08-30T05:08:46;6.25;;;5.00;;
21630;SDS011;10977;46.802;11.952;2022-08-30T05:11:11;5.97;;;4.88;;
21630;SDS011;10977;46.802;11.952;2022-08-30T05:13:38;5.55;;;4.50;;
21630;SDS011;10977;46.802;11.952;2022-08-30T05:16:04;5.18;;;4.68;;
21630;SDS011;10977;46.802;11.952;2022-08-30T05:18:32;7.38;;;5.40;;
21630;SDS011;10977;46.802;11.952;2022-08-30T05:21:08;8.85;;;5.32;;
21630;SDS011;10977;46.802;11.952;2022-08-30T05:23:36;6.28;;;5.13;;
21630;SDS011;10977;46.802;11.952;2022-08-30T05:26:07;5.53;;;5.03;;
21630;SDS011;10977;46.802;11.952;2022-08-30T05:28:35;7.10;;;5.30;;
21630;SDS011;10977;46.802;11.952;2022-08-30T05:31:00;8.27;;;5.40;;
21630;SDS011;10977;46.802;11.952;2022-08-30T05:33:26;8.65;;;5.57;;
21630;SDS011;10977;46.802;11.952;2022-08-30T05:35:52;8.95;;;5.22;;
21630;SDS011;10977;46.802;11.952;2022-08-30T05:38:17;6.25;;;4.45;;
21630;SDS011;10977;46.802;11.952;2022-08-30T05:40:42;6.78;;;4.80;;
21630;SDS011;10977;46.802;11.952;2022-08-30T05:43:09;17.88;;;6.20;;
21630;SDS011;10977;46.802;11.952;2022-08-30T05:45:35;6.88;;;5.25;;
21630;SDS011;10977;46.802;11.952;2022-08-30T05:48:01;6.47;;;4.70;;
21630;SDS011;10977;46.802;11.952;2022-08-30T05:50:26;8.25;;;4.93;;
21630;SDS011;10977;46.802;11.952;2022-08-30T05:52:52;5.28;;;4.75;;
21630;SDS011;10977;46.802;11.952;2022-08-30T05:55:17;6.97;;;5.30;;
21630;SDS011;10977;46.802;11.952;2022-08-30T05:57:43;6.93;;;5.50;;
21630;SDS011;10977;46.802;11.952;2022-08-30T06:00:12;7.40;;;5.88;;
21630;SDS011;10977;46.802;11.952;2022-08-30T06:02:40;8.27;;;5.20;;
21630;SDS011;10977;46.802;11.952;2022-08-30T06:05:06;6.85;;;4.93;;
21630;SDS011;10977;46.802;11.952;2022-08-30T06:07:33;7.25;;;5.57;;
21630;SDS011;10977;46.802;11.952;2022-08-30T06:09:58;6.05;;;5.45;;
21630;SDS011;10977;46.802;11.952;2022-08-30T06:12:24;7.47;;;5.57;;
21630;SDS011;10977;46.802;11.952;2022-08-30T06:14:49;5.97;;;5.20;;
21630;SDS011;10977;46.802;11.952;2022-08-30T06:17:15;6.75;;;5.32;;
21630;SDS011;10977;46.802;11.952;2022-08-30T06:19:40;10.25;;;5.97;;
21630;SDS011;10977;46.802;11.952;2022-08-30T06:22:06;6.63;;;5.65;;
21630;SDS011;10977;46.802;11.952;2022-08-30T06:24:31;9.80;;;5.43;;
21630;SDS011;10977;46.802;11.952;2022-08-30T06:26:56;7.40;;;5.00;;
21630;SDS011;10977;46.802;11.952;2022-08-30T06:29:22;5.35;;;4.85;;
21630;SDS011;10977;46.802;11.952;2022-08-30T06:31:47;8.45;;;5.18;;
21630;SDS011;10977;46.802;11.952;2022-08-30T06:34:14;5.93;;;5.10;;
21630;SDS011;10977;46.802;11.952;2022-08-30T06:36:40;9.95;;;5.78;;
21630;SDS011;10977;46.802;11.952;2022-08-30T06:39:06;6.75;;;5.63;;
21630;SDS011;10977;46.802;11.952;2022-08-30T06:41:33;6.13;;;5.53;;
21630;SDS011;10977;46.802;11.952;2022-08-30T06:44:01;6.40;;;5.10;;
21630;SDS011;10977;46.802;11.952;2022-08-30T06:46:28;6.57;;;5.95;;
21630;SDS011;10977;46.802;11.952;2022-08-30T06:48:56;5.68;;;5.05;;
21630;SDS011;10977;46.802;11.952;2022-08-30T06:51:23;6.80;;;4.97;;
21630;SDS011;10977;46.802;11.952;2022-08-30T06:53:52;8.07;;;5.40;;
21630;SDS011;10977;46.802;11.952;2022-08-30T06:56:17;7.38;;;5.07;;
21630;SDS011;10977;46.802;11.952;2022-08-30T06:58:44;5.53;;;5.00;;
21630;SDS011;10977;46.802;11.952;2022-08-30T07:01:21;7.40;;;5.55;;
21630;SDS011;10977;46.802;11.952;2022-08-30T07:03:48;6.10;;;5.50;;
21630;SDS011;10977;46.802;11.952;2022-08-30T07:06:14;6.95;;;5.30;;
21630;SDS011;10977;46.802;11.952;2022-08-30T07:08:40;6.35;;;5.47;;
21630;SDS011;10977;46.802;11.952;2022-08-30T07:11:07;8.93;;;5.78;;
21630;SDS011;10977;46.802;11.952;2022-08-30T07:13:33;5.53;;;4.72;;
21630;SDS011;10977;46.802;11.952;2022-08-30T07:16:00;5.57;;;5.03;;
21630;SDS011;10977;46.802;11.952;2022-08-30T07:18:25;6.57;;;5.65;;
21630;SDS011;10977;46.802;11.952;2022-08-30T07:21:10;6.43;;;5.47;;
21630;SDS011;10977;46.802;11.952;2022-08-30T07:23:40;6.55;;;5.28;;
21630;SDS011;10977;46.802;11.952;2022-08-30T07:26:08;7.80;;;5.30;;
21630;SDS011;10977;46.802;11.952;2022-08-30T07:28:36;6.80;;;4.78;;
21630;SDS011;10977;46.802;11.952;2022-08-30T07:31:03;6.57;;;5.50;;
21630;SDS011;10977;46.802;11.952;2022-08-30T07:33:29;6.03;;;5.43;;
21630;SDS011;10977;46.802;11.952;2022-08-30T07:35:55;5.72;;;5.10;;
21630;SDS011;10977;46.802;11.952;2022-08-30T07:38:20;6.68;;;4.93;;
21630;SDS011;10977;46.802;11.952;2022-08-30T07:40:45;8.88;;;4.63;;
21630;SDS011;10977;46.802;11.952;2022-08-30T07:43:11;6.22;;;5.35;;
21630;SDS011;10977;46.802;11.952;2022-08-30T07:45:36;6.43;;;5.15;;
21630;SDS011;10977;46.802;11.952;2022-08-30T07:48:03;5.80;;;4.88;;
21630;SDS011;10977;46.802;11.952;2022-08-30T07:50:29;6.97;;;5.32;;
21630;SDS011;10977;46.802;11.952;2022-08-30T07:52:54;6.70;;;5.10;;
21630;SDS011;10977;46.802;11.952;2022-08-30T07:55:20;5.97;;;5.38;;
21630;SDS011;10977;46.802;11.952;2022-08-30T07:57:45;10.25;;;5.65;;
21630;SDS011;10977;46.802;11.952;2022-08-30T08:00:11;9.60;;;5.80;;
21630;SDS011;10977;46.802;11.952;2022-08-30T08:02:37;6.97;;;5.40;;
21630;SDS011;10977;46.802;11.952;2022-08-30T08:05:04;8.50;;;5.72;;
21630;SDS011;10977;46.802;11.952;2022-08-30T08:07:32;6.32;;;5.72;;
21630;SDS011;10977;46.802;11.952;2022-08-30T08:09:57;7.22;;;6.30;;
21630;SDS011;10977;46.802;11.952;2022-08-30T08:12:23;6.28;;;5.68;;
21630;SDS011;10977;46.802;11.952;2022-08-30T08:14:48;6.50;;;5.88;;
21630;SDS011;10977;46.802;11.952;2022-08-30T08:17:14;7.60;;;5.82;;
21630;SDS011;10977;46.802;11.952;2022-08-30T08:19:39;7.57;;;5.60;;
21630;SDS011;10977;46.802;11.952;2022-08-30T08:22:05;7.72;;;5.18;;
21630;SDS011;10977;46.802;11.952;2022-08-30T08:24:30;6.47;;;5.72;;
21630;SDS011;10977;46.802;11.952;2022-08-30T08:26:55;6.90;;;5.50;;
21630;SDS011;10977;46.802;11.952;2022-08-30T08:29:21;6.03;;;5.43;;
21630;SDS011;10977;46.802;11.952;2022-08-30T08:31:47;7.35;;;5.70;;
21630;SDS011;10977;46.802;11.952;2022-08-30T08:34:13;8.20;;;5.45;;
21630;SDS011;10977;46.802;11.952;2022-08-30T08:36:38;7.82;;;5.28;;
21630;SDS011;10977;46.802;11.952;2022-08-30T08:39:05;7.97;;;5.38;;
21630;SDS011;10977;46.802;11.952;2022-08-30T08:44:27;5.80;;;5.20;;
21630;SDS011;10977;46.802;11.952;2022-08-30T08:47:15;5.60;;;5.10;;
21630;SDS011;10977;46.802;11.952;2022-08-30T08:49:48;5.32;;;4.82;;
21630;SDS011;10977;46.802;11.952;2022-08-30T08:55:39;6.65;;;4.90;;
21630;SDS011;10977;46.802;11.952;2022-08-30T08:58:17;7.13;;;4.63;;
21630;SDS011;10977;46.802;11.952;2022-08-30T09:00:48;4.90;;;4.40;;
21630;SDS011;10977;46.802;11.952;2022-08-30T09:03:13;4.45;;;4.03;;
21630;SDS011;10977;46.802;11.952;2022-08-30T09:05:40;5.82;;;4.53;;
21630;SDS011;10977;46.802;11.952;2022-08-30T09:08:09;4.68;;;4.28;;
21630;SDS011;10977;46.802;11.952;2022-08-30T09:10:39;4.80;;;4.30;;
21630;SDS011;10977;46.802;11.952;2022-08-30T09:13:09;4.53;;;4.10;;
21630;SDS011;10977;46.802;11.952;2022-08-30T09:15:34;4.78;;;4.30;;
21630;SDS011;10977;46.802;11.952;2022-08-30T09:18:05;5.65;;;4.68;;
21630;SDS011;10977;46.802;11.952;2022-08-30T09:20:43;6.70;;;4.63;;
21630;SDS011;10977;46.802;11.952;2022-08-30T09:25:37;6.95;;;4.60;;
21630;SDS011;10977;46.802;11.952;2022-08-30T09:28:11;4.93;;;4.50;;
21630;SDS011;10977;46.802;11.952;2022-08-30T09:30:38;6.60;;;5.50;;
21630;SDS011;10977;46.802;11.952;2022-08-30T09:33:19;6.22;;;5.28;;
21630;SDS011;10977;46.802;11.952;2022-08-30T09:35:49;5.05;;;4.55;;
21630;SDS011;10977;46.802;11.952;2022-08-30T09:40:47;7.78;;;4.43;;
21630;SDS011;10977;46.802;11.952;2022-08-30T09:45:41;6.30;;;4.97;;
21630;SDS011;10977;46.802;11.952;2022-08-30T09:51:48;5.35;;;4.85;;
21630;SDS011;10977;46.802;11.952;2022-08-30T09:54:24;5.45;;;4.95;;
21630;SDS011;10977;46.802;11.952;2022-08-30T10:00:05;7.22;;;5.00;;
21630;SDS011;10977;46.802;11.952;2022-08-30T10:06:20;5.65;;;4.82;;
21630;SDS011;10977;46.802;11.952;2022-08-30T10:12:56;7.93;;;4.75;;
21630;SDS011;10977;46.802;11.952;2022-08-30T10:15:24;6.43;;;5.00;;
21630;SDS011;10977;46.802;11.952;2022-08-30T10:23:49;9.30;;;5.07;;
21630;SDS011;10977;46.802;11.952;2022-08-30T10:28:50;5.55;;;4.90;;
21630;SDS011;10977;46.802;11.952;2022-08-30T10:31:30;5.82;;;4.53;;
21630;SDS011;10977;46.802;11.952;2022-08-30T10:34:05;6.03;;;5.53;;
21630;SDS011;10977;46.802;11.952;2022-08-30T10:36:43;5.50;;;4.97;;
21630;SDS011;10977;46.802;11.952;2022-08-30T10:39:15;5.90;;;5.30;;
21630;SDS011;10977;46.802;11.952;2022-08-30T10:41:48;5.10;;;4.30;;
21630;SDS011;10977;46.802;11.952;2022-08-30T10:47:00;6.20;;;4.72;;
21630;SDS011;10977;46.802;11.952;2022-08-30T10:49:47;5.43;;;4.93;;
21630;SDS011;10977;46.802;11.952;2022-08-30T10:52:35;5.22;;;4.72;;
21630;SDS011;10977;46.802;11.952;2022-08-30T10:55:17;5.25;;;4.75;;
21630;SDS011;10977;46.802;11.952;2022-08-30T10:57:46;5.45;;;4.90;;
21630;SDS011;10977;46.802;11.952;2022-08-30T11:00:13;4.95;;;4.45;;
21630;SDS011;10977;46.802;11.952;2022-08-30T11:11:05;4.68;;;4.28;;
21630;SDS011;10977;46.802;11.952;2022-08-30T11:13:44;4.82;;;4.43;;
21630;SDS011;10977;46.802;11.952;2022-08-30T11:16:14;4.43;;;4.03;;
21630;SDS011;10977;46.802;11.952;2022-08-30T11:21:18;4.45;;;4.05;;
21630;SDS011;10977;46.802;11.952;2022-08-30T11:48:36;4.60;;;4.20;;
21630;SDS011;10977;46.802;11.952;2022-08-30T11:50:57;4.45;;;4.05;;
21630;SDS011;10977;46.802;11.952;2022-08-30T11:53:31;4.50;;;4.10;;
21630;SDS011;10977;46.802;11.952;2022-08-30T11:56:08;5.90;;;4.30;;
21630;SDS011;10977;46.802;11.952;2022-08-30T11:58:56;4.07;;;3.67;;
21630;SDS011;10977;46.802;11.952;2022-08-30T12:03:57;4.95;;;3.60;;
21630;SDS011;10977;46.802;11.952;2022-08-30T12:07:54;4.25;;;3.85;;
21630;SDS011;10977;46.802;11.952;2022-08-30T12:14:31;3.60;;;3.30;;
21630;SDS011;10977;46.802;11.952;2022-08-30T12:20:17;3.58;;;3.28;;
21630;SDS011;10977;46.802;11.952;2022-08-30T12:22:43;3.72;;;3.42;;
21630;SDS011;10977;46.802;11.952;2022-08-30T12:25:18;3.20;;;2.90;;
21630;SDS011;10977;46.802;11.952;2022-08-30T12:28:08;3.72;;;3.25;;
21630;SDS011;10977;46.802;11.952;2022-08-30T12:30:35;3.35;;;3.05;;
21630;SDS011;10977;46.802;11.952;2022-08-30T12:33:04;3.10;;;2.80;;
21630;SDS011;10977;46.802;11.952;2022-08-30T12:35:30;3.15;;;2.75;;
21630;SDS011;10977;46.802;11.952;2022-08-30T12:37:58;2.63;;;2.42;;
21630;SDS011;10977;46.802;11.952;2022-08-30T12:40:25;2.97;;;2.60;;
21630;SDS011;10977;46.802;11.952;2022-08-30T12:42:58;2.78;;;2.58;;
21630;SDS011;10977;46.802;11.952;2022-08-30T12:45:29;2.45;;;2.25;;
21630;SDS011;10977;46.802;11.952;2022-08-30T12:48:05;9.15;;;2.67;;
21630;SDS011;10977;46.802;11.952;2022-08-30T12:50:35;3.75;;;2.30;;
21630;SDS011;10977;46.802;11.952;2022-08-30T12:53:07;2.40;;;2.20;;
21630;SDS011;10977;46.802;11.952;2022-08-30T12:55:36;2.50;;;2.30;;
21630;SDS011;10977;46.802;11.952;2022-08-30T12:58:36;3.92;;;2.47;;
21630;SDS011;10977;46.802;11.952;2022-08-30T13:03:59;3.35;;;2.42;;
21630;SDS011;10977;46.802;11.952;2022-08-30T13:12:00;4.10;;;2.00;;
21630;SDS011;10977;46.802;11.952;2022-08-30T13:14:35;7.00;;;2.47;;
21630;SDS011;10977;46.802;11.952;2022-08-30T13:17:10;2.22;;;2.10;;
21630;SDS011;10977;46.802;11.952;2022-08-30T13:25:27;2.20;;;2.00;;
21630;SDS011;10977;46.802;11.952;2022-08-30T13:27:54;3.08;;;2.78;;
21630;SDS011;10977;46.802;11.952;2022-08-30T13:30:19;2.53;;;2.30;;
21630;SDS011;10977;46.802;11.952;2022-08-30T13:32:45;4.60;;;2.33;;
21630;SDS011;10977;46.802;11.952;2022-08-30T13:35:10;2.53;;;2.33;;
21630;SDS011;10977;46.802;11.952;2022-08-30T13:37:36;2.75;;;2.03;;
21630;SDS011;10977;46.802;11.952;2022-08-30T13:40:05;2.38;;;2.17;;
21630;SDS011;10977;46.802;11.952;2022-08-30T13:42:31;2.22;;;1.92;;
21630;SDS011;10977;46.802;11.952;2022-08-30T13:44:57;2.53;;;2.20;;
21630;SDS011;10977;46.802;11.952;2022-08-30T13:47:22;2.20;;;2.00;;
21630;SDS011;10977;46.802;11.952;2022-08-30T13:49:48;2.00;;;1.90;;
21630;SDS011;10977;46.802;11.952;2022-08-30T13:52:14;2.28;;;1.85;;
21630;SDS011;10977;46.802;11.952;2022-08-30T13:54:42;2.03;;;1.70;;
21630;SDS011;10977;46.802;11.952;2022-08-30T13:57:07;1.63;;;1.52;;
21630;SDS011;10977;46.802;11.952;2022-08-30T13:59:32;1.80;;;1.70;;
21630;SDS011;10977;46.802;11.952;2022-08-30T14:01:58;1.88;;;1.77;;
21630;SDS011;10977;46.802;11.952;2022-08-30T14:04:25;1.83;;;1.73;;
21630;SDS011;10977;46.802;11.952;2022-08-30T14:06:51;1.90;;;1.80;;
21630;SDS011;10977;46.802;11.952;2022-08-30T14:09:16;1.70;;;1.60;;
21630;SDS011;10977;46.802;11.952;2022-08-30T14:11:42;1.67;;;1.58;;
21630;SDS011;10977;46.802;11.952;2022-08-30T14:14:08;1.95;;;1.85;;
21630;SDS011;10977;46.802;11.952;2022-08-30T14:16:35;2.00;;;1.80;;
21630;SDS011;10977;46.802;11.952;2022-08-30T14:19:03;2.25;;;2.08;;
21630;SDS011;10977;46.802;11.952;2022-08-30T14:21:29;2.13;;;1.98;;
21630;SDS011;10977;46.802;11.952;2022-08-30T14:23:55;2.13;;;1.90;;
21630;SDS011;10977;46.802;11.952;2022-08-30T14:26:22;2.10;;;1.90;;
21630;SDS011;10977;46.802;11.952;2022-08-30T14:29:02;2.53;;;2.00;;
21630;SDS011;10977;46.802;11.952;2022-08-30T14:31:29;2.53;;;2.33;;
21630;SDS011;10977;46.802;11.952;2022-08-30T14:33:55;4.82;;;2.50;;
21630;SDS011;10977;46.802;11.952;2022-08-30T14:36:21;2.97;;;2.40;;
21630;SDS011;10977;46.802;11.952;2022-08-30T14:38:46;2.60;;;2.40;;
21630;SDS011;10977;46.802;11.952;2022-08-30T14:41:12;5.57;;;2.30;;
21630;SDS011;10977;46.802;11.952;2022-08-30T14:43:37;3.25;;;2.30;;
21630;SDS011;10977;46.802;11.952;2022-08-30T14:46:05;2.53;;;2.33;;
21630;SDS011;10977;46.802;11.952;2022-08-30T14:48:31;2.58;;;2.38;;
21630;SDS011;10977;46.802;11.952;2022-08-30T14:50:56;2.95;;;2.40;;
21630;SDS011;10977;46.802;11.952;2022-08-30T14:53:21;2.20;;;2.00;;
21630;SDS011;10977;46.802;11.952;2022-08-30T14:55:47;1.90;;;1.80;;
21630;SDS011;10977;46.802;11.952;2022-08-30T14:58:12;1.75;;;1.63;;
21630;SDS011;10977;46.802;11.952;2022-08-30T15:00:41;3.97;;;2.20;;
21630;SDS011;10977;46.802;11.952;2022-08-30T15:03:07;3.47;;;2.10;;
21630;SDS011;10977;46.802;11.952;2022-08-30T15:05:35;4.65;;;1.77;;
21630;SDS011;10977;46.802;11.952;2022-08-30T15:08:01;3.38;;;1.70;;
21630;SDS011;10977;46.802;11.952;2022-08-30T15:10:26;2.47;;;2.08;;
21630;SDS011;10977;46.802;11.952;2022-08-30T15:12:52;2.10;;;1.90;;
21630;SDS011;10977;46.802;11.952;2022-08-30T15:15:18;3.78;;;1.80;;
21630;SDS011;10977;46.802;11.952;2022-08-30T15:17:45;2.00;;;1.75;;
21630;SDS011;10977;46.802;11.952;2022-08-30T15:20:11;3.30;;;1.70;;
21630;SDS011;10977;46.802;11.952;2022-08-30T15:22:37;5.35;;;1.83;;
21630;SDS011;10977;46.802;11.952;2022-08-30T15:25:03;3.22;;;1.60;;
21630;SDS011;10977;46.802;11.952;2022-08-30T15:27:29;4.43;;;1.80;;
21630;SDS011;10977;46.802;11.952;2022-08-30T15:29:54;4.28;;;1.83;;
21630;SDS011;10977;46.802;11.952;2022-08-30T15:32:20;3.50;;;1.80;;
21630;SDS011;10977;46.802;11.952;2022-08-30T15:34:45;3.63;;;1.55;;
21630;SDS011;10977;46.802;11.952;2022-08-30T15:37:11;7.65;;;1.73;;
21630;SDS011;10977;46.802;11.952;2022-08-30T15:39:36;3.00;;;1.58;;
21630;SDS011;10977;46.802;11.952;2022-08-30T15:42:01;2.20;;;1.63;;
21630;SDS011;10977;46.802;11.952;2022-08-30T15:44:30;2.05;;;1.50;;
21630;SDS011;10977;46.802;11.952;2022-08-30T15:46:56;1.45;;;1.20;;
21630;SDS011;10977;46.802;11.952;2022-08-30T15:49:22;2.38;;;1.60;;
21630;SDS011;10977;46.802;11.952;2022-08-30T15:51:48;1.42;;;1.23;;
21630;SDS011;10977;46.802;11.952;2022-08-30T15:54:15;1.50;;;1.30;;
21630;SDS011;10977;46.802;11.952;2022-08-30T15:56:42;4.93;;;1.50;;
21630;SDS011;10977;46.802;11.952;2022-08-30T15:59:08;3.78;;;1.83;;
21630;SDS011;10977;46.802;11.952;2022-08-30T16:01:34;1.30;;;1.20;;
21630;SDS011;10977;46.802;11.952;2022-08-30T16:04:00;1.60;;;1.48;;
21630;SDS011;10977;46.802;11.952;2022-08-30T16:06:35;3.22;;;1.77;;
21630;SDS011;10977;46.802;11.952;2022-08-30T16:09:02;1.77;;;1.38;;
21630;SDS011;10977;46.802;11.952;2022-08-30T16:11:31;1.40;;;1.30;;
21630;SDS011;10977;46.802;11.952;2022-08-30T16:13:57;1.40;;;1.30;;
21630;SDS011;10977;46.802;11.952;2022-08-30T16:16:23;1.75;;;1.65;;